Murdock, Minnesota
Current Conditions -  °F | °C
As of 12:35 PM on Thursday 23 Oct 2014 (Local Time) from KBDH Reporting Station
Clear Clear  
Wind Chill: 17°   Ceiling: Unl
Heat Index: 17°   Visibility: 10mi
Dew Point:   Wind: 7mph
Humidity: 55%   Direction: 280°W
Pressure: 30"   Gusts: NA
Location:  45.22°N, 95.39°W
Report Text: KBDH 231735Z AUTO 28006KT 10SM CLR 17/08 A3000 RMK AO2
Loading
Personal Weather Stations






























Interactive Weather Map
Tropical Storm Tracking
New forecast layout! Learn more

10-Day Weather Forecast

Advertisements
Track Severe Weather on mobile